createdAt,value
2018-08-19T00:00:28.191Z,74.37
2018-08-19T00:02:21.124Z,74.17
2018-08-19T00:03:21.124Z,74.46
2018-08-19T00:05:14.037Z,74.08
2018-08-19T00:06:14.059Z,74.17
2018-08-19T00:08:06.990Z,74.65
2018-08-19T00:09:06.991Z,74.37
2018-08-19T00:10:59.927Z,74.55
2018-08-19T00:11:59.934Z,74.17
2018-08-19T00:13:52.841Z,74.46
2018-08-19T00:14:52.872Z,74.17
2018-08-19T00:16:45.794Z,74.46
2018-08-19T00:17:45.796Z,74.46
2018-08-19T00:19:38.706Z,75.00
2018-08-19T00:20:38.729Z,74.75
2018-08-19T00:22:31.671Z,74.71
2018-08-19T00:23:31.664Z,74.71
2018-08-19T00:25:24.584Z,75.04
2018-08-19T00:26:24.619Z,75.00
2018-08-19T00:28:17.601Z,75.10
2018-08-19T00:29:17.540Z,75.20
2018-08-19T00:31:10.482Z,75.20
2018-08-19T00:32:10.472Z,75.48
2018-08-19T00:34:03.380Z,75.38
2018-08-19T00:35:03.403Z,75.10
2018-08-19T00:36:56.336Z,75.48
2018-08-19T00:37:56.335Z,75.67
2018-08-19T00:39:49.245Z,75.96
2018-08-19T00:40:49.268Z,76.15
2018-08-19T00:42:42.197Z,76.59
2018-08-19T00:43:42.220Z,76.50
2018-08-19T00:45:35.109Z,76.40
2018-08-19T00:46:35.132Z,76.50
2018-08-19T00:48:28.063Z,76.40
2018-08-19T00:49:28.074Z,76.12
2018-08-19T00:51:20.995Z,76.50
2018-08-19T00:52:21.006Z,76.50
2018-08-19T00:54:13.908Z,76.59
2018-08-19T00:55:13.932Z,76.40
2018-08-19T00:57:06.884Z,77.08
2018-08-19T00:58:06.887Z,77.08
2018-08-19T00:59:59.792Z,77.17
2018-08-19T01:00:59.814Z,77.56
2018-08-19T01:02:52.745Z,76.79
2018-08-19T01:03:52.746Z,77.17
2018-08-19T01:05:45.659Z,76.69
2018-08-19T01:06:45.678Z,77.17
2018-08-19T01:08:38.619Z,76.69
2018-08-19T01:09:38.620Z,77.08
2018-08-19T01:11:31.547Z,77.46
2018-08-19T01:12:31.547Z,77.26
2018-08-19T01:14:24.457Z,77.17
2018-08-19T01:15:24.479Z,77.65
2018-08-19T01:17:17.407Z,77.56
2018-08-19T01:18:17.412Z,77.51
2018-08-19T01:20:10.324Z,77.51
2018-08-19T01:21:10.343Z,77.23
2018-08-19T01:23:03.284Z,77.23
2018-08-19T01:24:03.284Z,77.80
2018-08-19T01:25:56.192Z,77.33
2018-08-19T01:26:56.215Z,77.42
2018-08-19T01:28:49.146Z,77.90
2018-08-19T01:29:49.143Z,78.19
2018-08-19T01:31:43.074Z,78.57
2018-08-19T01:32:43.077Z,78.67
2018-08-19T01:34:35.984Z,78.67
2018-08-19T01:35:36.013Z,78.96
2018-08-19T01:37:28.937Z,78.96
2018-08-19T01:38:28.937Z,78.67
2018-08-19T01:40:21.866Z,78.67
2018-08-19T01:41:21.892Z,78.57
2018-08-19T01:43:14.818Z,79.24
2018-08-19T01:44:14.819Z,78.77
2018-08-19T01:46:07.731Z,78.57
2018-08-19T01:47:07.752Z,78.47
2018-08-19T01:49:00.683Z,78.38
2018-08-19T01:50:00.683Z,78.67
2018-08-19T01:51:53.614Z,78.67
2018-08-19T01:52:53.614Z,78.67
2018-08-19T01:54:46.522Z,78.82
2018-08-19T01:55:46.543Z,79.01
2018-08-19T01:57:39.475Z,78.92
2018-08-19T01:58:39.524Z,78.72
2018-08-19T02:00:32.391Z,78.92
2018-08-19T02:01:32.414Z,78.92
2018-08-19T02:03:25.343Z,79.11
2018-08-19T02:04:25.345Z,79.59
2018-08-19T02:06:18.251Z,79.49
2018-08-19T02:07:18.274Z,79.21
2018-08-19T02:09:11.202Z,79.59
2018-08-19T02:10:11.202Z,79.78
2018-08-19T02:12:04.135Z,79.49
2018-08-19T02:13:04.135Z,80.55
2018-08-19T02:14:57.046Z,80.35
2018-08-19T02:15:57.068Z,79.88
2018-08-19T02:17:49.991Z,80.26
2018-08-19T02:18:49.993Z,80.26
2018-08-19T02:20:42.973Z,80.16
2018-08-19T02:21:42.922Z,80.45
2018-08-19T02:23:35.870Z,80.45
2018-08-19T02:24:35.853Z,80.83
2018-08-19T02:26:28.782Z,80.83
2018-08-19T02:27:28.779Z,81.22
2018-08-19T02:29:21.719Z,80.83
2018-08-19T02:30:21.709Z,80.93
2018-08-19T02:32:14.652Z,80.55
2018-08-19T02:33:14.638Z,80.45
2018-08-19T02:35:07.549Z,80.74
2018-08-19T02:36:07.569Z,81.02
2018-08-19T02:38:00.512Z,80.93
2018-08-19T02:39:00.499Z,80.64
2018-08-19T02:40:53.415Z,80.55
2018-08-19T02:41:53.440Z,80.55
2018-08-19T02:43:46.372Z,80.16
2018-08-19T02:44:46.364Z,80.16
2018-08-19T02:46:39.271Z,80.51
2018-08-19T02:47:39.291Z,80.22
2018-08-19T02:49:32.221Z,80.26
2018-08-19T02:50:32.234Z,79.83
2018-08-19T02:52:25.156Z,80.35
2018-08-19T02:53:25.161Z,80.32
2018-08-19T02:55:18.065Z,80.22
2018-08-19T02:56:18.097Z,80.55
2018-08-19T02:58:11.012Z,80.26
2018-08-19T02:59:11.025Z,80.32
2018-08-19T03:01:03.917Z,80.41
2018-08-19T03:02:03.940Z,80.22
2018-08-19T03:03:56.872Z,80.32
2018-08-19T03:04:56.872Z,80.83
2018-08-19T03:06:49.792Z,81.08
2018-08-19T03:07:49.817Z,80.89
2018-08-19T03:09:42.745Z,80.79
2018-08-19T03:10:42.750Z,81.08
2018-08-19T03:12:35.674Z,80.79
2018-08-19T03:13:35.675Z,81.08
2018-08-19T03:15:28.585Z,80.55
2018-08-19T03:16:28.614Z,80.70
2018-08-19T03:18:21.538Z,80.79
2018-08-19T03:19:21.538Z,80.79
2018-08-19T03:21:14.450Z,80.60
2018-08-19T03:22:14.472Z,80.79
2018-08-19T03:24:07.399Z,80.99
2018-08-19T03:25:07.401Z,80.99
2018-08-19T03:27:00.311Z,80.89
2018-08-19T03:28:00.333Z,80.79
2018-08-19T03:29:53.259Z,81.27
2018-08-19T03:30:53.257Z,81.46
2018-08-19T03:32:46.192Z,81.62
2018-08-19T03:33:46.193Z,81.66
2018-08-19T03:35:39.099Z,81.13
2018-08-19T03:36:39.117Z,81.62
2018-08-19T03:38:32.046Z,81.33
2018-08-19T03:39:32.049Z,82.19
2018-08-19T03:41:24.952Z,82.48
2018-08-19T03:42:24.972Z,83.53
2018-08-19T03:44:17.904Z,83.82
2018-08-19T03:45:17.902Z,83.82
2018-08-19T03:47:10.809Z,84.78
2018-08-19T03:48:10.828Z,84.49
2018-08-19T03:50:03.756Z,85.16
2018-08-19T03:51:03.756Z,85.54
2018-08-19T03:52:56.684Z,85.54
2018-08-19T03:53:56.680Z,85.54
2018-08-19T03:55:49.596Z,85.69
2018-08-19T03:56:49.611Z,85.45
2018-08-19T03:58:42.538Z,85.64
2018-08-19T03:59:42.538Z,85.74
2018-08-19T04:01:35.444Z,85.83
2018-08-19T04:02:35.464Z,85.60
2018-08-19T04:04:28.409Z,86.02
2018-08-19T04:05:28.391Z,85.64
2018-08-19T04:07:21.317Z,85.74
2018-08-19T04:08:21.322Z,84.88
2018-08-19T04:10:14.256Z,85.74
2018-08-19T04:11:14.250Z,85.64
2018-08-19T04:13:07.179Z,85.41
2018-08-19T04:14:07.180Z,85.74
2018-08-19T04:16:00.088Z,85.64
2018-08-19T04:17:00.107Z,85.35
2018-08-19T04:18:53.032Z,85.93
2018-08-19T04:19:53.032Z,85.74
2018-08-19T04:21:45.936Z,85.25
2018-08-19T04:22:45.957Z,85.64
2018-08-19T04:24:38.889Z,85.83
2018-08-19T04:25:38.894Z,85.74
2018-08-19T04:27:31.790Z,85.83
2018-08-19T04:28:31.817Z,85.79
2018-08-19T04:30:24.737Z,85.74
2018-08-19T04:31:24.754Z,85.64
2018-08-19T04:33:17.666Z,85.64
2018-08-19T04:34:17.722Z,85.45
2018-08-19T04:36:10.572Z,85.64
2018-08-19T04:37:10.597Z,85.83
2018-08-19T04:39:03.523Z,85.74
2018-08-19T04:40:03.520Z,86.02
2018-08-19T04:41:56.450Z,85.93
2018-08-19T04:42:56.473Z,86.46
2018-08-19T04:44:49.403Z,86.79
2018-08-19T04:45:49.402Z,86.02
2018-08-19T04:47:42.313Z,86.88
2018-08-19T04:48:42.333Z,86.98
2018-08-19T04:50:35.262Z,86.21
2018-08-19T04:51:35.261Z,85.64
2018-08-19T04:53:28.202Z,85.83
2018-08-19T04:54:28.204Z,85.54
2018-08-19T04:56:21.110Z,85.58
2018-08-19T04:57:21.128Z,85.21
2018-08-19T04:59:14.053Z,85.21
2018-08-19T05:00:14.054Z,85.58
2018-08-19T05:02:07.203Z,84.25
2018-08-19T05:03:07.160Z,83.61
2018-08-19T05:05:00.086Z,83.42
2018-08-19T05:06:00.090Z,83.42
2018-08-19T05:07:53.053Z,83.52
2018-08-19T05:08:53.016Z,83.33
2018-08-19T05:10:45.970Z,83.29
2018-08-19T05:11:45.948Z,83.33
2018-08-19T05:13:38.896Z,83.61
2018-08-19T05:14:38.880Z,83.52
2018-08-19T05:16:31.822Z,82.56
2018-08-19T05:17:31.808Z,82.46
2018-08-19T05:19:24.749Z,82.46
2018-08-19T05:20:24.736Z,82.56
2018-08-19T05:22:17.669Z,82.94
2018-08-19T05:23:17.668Z,82.75
2018-08-19T05:25:10.594Z,82.75
2018-08-19T05:26:10.594Z,82.56
2018-08-19T05:28:03.505Z,82.18
2018-08-19T05:29:03.526Z,82.51
2018-08-19T05:30:56.457Z,81.74
2018-08-19T05:31:56.455Z,81.74
2018-08-19T05:33:49.396Z,81.84
2018-08-19T05:34:49.395Z,81.07
2018-08-19T05:36:42.329Z,80.78
2018-08-19T05:37:42.333Z,80.78
2018-08-19T05:39:35.258Z,80.63
2018-08-19T05:40:35.266Z,80.24
2018-08-19T05:42:28.167Z,79.67
2018-08-19T05:43:28.187Z,80.24
2018-08-19T05:45:21.154Z,79.28
2018-08-19T05:46:21.137Z,79.61
2018-08-19T05:48:14.055Z,78.84
2018-08-19T05:49:14.082Z,78.55
2018-08-19T05:51:07.022Z,78.55
2018-08-19T05:52:07.011Z,77.88
2018-08-19T05:53:59.955Z,77.53
2018-08-19T05:54:59.951Z,77.06
2018-08-19T05:56:52.861Z,77.73
2018-08-19T05:57:52.887Z,77.73
2018-08-19T05:59:45.981Z,76.77
2018-08-19T06:00:45.981Z,76.57
2018-08-19T06:02:38.892Z,76.77
2018-08-19T06:03:38.914Z,76.61
2018-08-19T06:05:31.981Z,76.14
2018-08-19T06:06:32.049Z,76.04
2018-08-19T06:08:24.896Z,75.56
2018-08-19T06:09:24.917Z,75.75
2018-08-19T06:11:17.984Z,75.40
2018-08-19T06:12:17.990Z,75.69
2018-08-19T06:14:10.930Z,74.29
2018-08-19T06:15:10.931Z,73.55
2018-08-19T06:17:03.846Z,72.72
2018-08-19T06:18:03.872Z,71.47
2018-08-19T06:19:56.810Z,69.23
2018-08-19T06:20:56.813Z,68.01
2018-08-19T06:22:49.729Z,66.69
2018-08-19T06:23:49.757Z,65.27
2018-08-19T06:25:43.544Z,62.70
2018-08-19T06:26:42.697Z,61.92
2018-08-19T06:28:35.613Z,60.79
2018-08-19T06:29:35.639Z,60.14
2018-08-19T06:31:28.588Z,59.31
2018-08-19T06:32:28.594Z,59.01
2018-08-19T06:34:21.534Z,59.01
2018-08-19T06:35:21.541Z,58.14
2018-08-19T06:37:14.459Z,57.20
2018-08-19T06:38:14.485Z,57.11
2018-08-19T06:40:07.426Z,57.30
2018-08-19T06:41:07.433Z,56.52
2018-08-19T06:43:00.414Z,56.36
2018-08-19T06:44:00.387Z,56.36
2018-08-19T06:45:53.348Z,55.13
2018-08-19T06:46:53.335Z,55.52
2018-08-19T06:48:46.258Z,54.55
2018-08-19T06:49:46.287Z,54.16
2018-08-19T06:51:39.235Z,53.87
2018-08-19T06:52:39.239Z,53.99
2018-08-19T06:54:32.180Z,53.70
2018-08-19T06:55:32.205Z,53.89
2018-08-19T06:57:25.109Z,53.80
2018-08-19T06:58:25.142Z,53.31
2018-08-19T07:00:18.083Z,53.41
2018-08-19T07:01:18.091Z,53.70
2018-08-19T07:03:11.047Z,53.51
2018-08-19T07:04:11.067Z,53.77
2018-08-19T07:06:04.028Z,53.67
2018-08-19T07:07:04.020Z,53.77
2018-08-19T07:08:56.940Z,53.67
2018-08-19T07:09:56.970Z,54.16
2018-08-19T07:11:49.918Z,54.45
2018-08-19T07:12:49.921Z,54.52
2018-08-19T07:14:42.877Z,54.62
2018-08-19T07:15:42.870Z,55.07
2018-08-19T07:17:35.791Z,56.04
2018-08-19T07:18:35.824Z,55.66
2018-08-19T07:20:28.759Z,56.40
2018-08-19T07:21:28.768Z,55.24
2018-08-19T07:23:21.691Z,56.43
2018-08-19T07:24:21.745Z,56.11
2018-08-19T07:26:14.824Z,56.30
2018-08-19T07:27:14.667Z,56.30
2018-08-19T07:29:07.594Z,56.30
2018-08-19T07:30:07.619Z,56.79
2018-08-19T07:32:00.572Z,56.40
2018-08-19T07:33:00.567Z,56.40
2018-08-19T07:34:53.687Z,57.28
2018-08-19T07:35:53.678Z,57.18
2018-08-19T07:37:46.610Z,57.08
2018-08-19T07:38:46.641Z,56.70
2018-08-19T07:40:39.585Z,57.73
2018-08-19T07:41:39.586Z,57.28
2018-08-19T07:43:32.503Z,58.24
2018-08-19T07:44:32.556Z,57.76
2018-08-19T07:46:25.469Z,57.28
2018-08-19T07:47:25.476Z,56.88
2018-08-19T07:49:18.396Z,56.50
2018-08-19T07:50:18.422Z,56.30
2018-08-19T07:52:11.362Z,56.60
2018-08-19T07:53:11.369Z,56.11
2018-08-19T07:55:04.338Z,56.52
2018-08-19T07:56:04.315Z,55.66
2018-08-19T07:57:57.243Z,54.88
2018-08-19T07:58:57.270Z,55.36
2018-08-19T08:00:50.217Z,55.20
2018-08-19T08:01:50.218Z,55.40
2018-08-19T08:03:43.152Z,54.23
2018-08-19T08:04:43.171Z,54.03
2018-08-19T08:06:36.132Z,54.52
2018-08-19T08:07:36.120Z,54.03
2018-08-19T08:09:29.064Z,53.85
2018-08-19T08:10:29.068Z,53.65
2018-08-19T08:12:22.092Z,53.77
2018-08-19T08:13:22.120Z,53.26
2018-08-19T08:15:15.020Z,53.19
2018-08-19T08:16:15.058Z,52.10
2018-08-19T08:18:08.013Z,53.36
2018-08-19T08:19:07.994Z,53.65
2018-08-19T08:21:00.967Z,53.63
2018-08-19T08:22:00.956Z,53.43
2018-08-19T08:23:53.877Z,54.47
2018-08-19T08:24:53.901Z,54.37
2018-08-19T08:26:47.014Z,54.66
2018-08-19T08:27:47.014Z,55.15
2018-08-19T08:29:39.937Z,54.21
2018-08-19T08:30:39.960Z,54.49
2018-08-19T08:32:32.911Z,53.63
2018-08-19T08:33:32.910Z,53.72
2018-08-19T08:35:25.838Z,53.65
2018-08-19T08:36:25.866Z,53.65
2018-08-19T08:38:18.813Z,53.07
2018-08-19T08:39:18.927Z,53.36
2018-08-19T08:41:11.764Z,52.71
2018-08-19T08:42:11.767Z,52.22
2018-08-19T08:44:04.682Z,51.90
2018-08-19T08:45:04.709Z,52.39
2018-08-19T08:46:57.656Z,52.42
2018-08-19T08:47:57.716Z,52.12
2018-08-19T08:49:50.604Z,51.81
2018-08-19T08:50:50.637Z,52.20
2018-08-19T08:52:43.572Z,52.39
2018-08-19T08:53:43.570Z,52.42
2018-08-19T08:55:36.511Z,51.90
2018-08-19T08:56:36.538Z,52.12
2018-08-19T08:58:29.476Z,52.20
2018-08-19T08:59:29.486Z,52.58
2018-08-19T09:01:22.430Z,52.68
2018-08-19T09:02:22.431Z,53.07
2018-08-19T09:04:15.350Z,52.03
2018-08-19T09:05:15.379Z,51.45
2018-08-19T09:07:08.323Z,51.52
2018-08-19T09:08:08.326Z,51.35
2018-08-19T09:10:01.244Z,51.35
2018-08-19T09:11:01.271Z,51.25
2018-08-19T09:12:54.214Z,51.54
2018-08-19T09:13:54.325Z,52.51
2018-08-19T09:15:47.140Z,50.96
2018-08-19T09:16:47.167Z,51.45
2018-08-19T09:18:40.109Z,50.77
2018-08-19T09:19:40.116Z,50.74
2018-08-19T09:21:33.057Z,50.74
2018-08-19T09:22:33.068Z,50.84
2018-08-19T09:24:26.208Z,51.23
2018-08-19T09:25:26.239Z,51.13
2018-08-19T09:27:19.174Z,51.42
2018-08-19T09:28:19.186Z,51.52
2018-08-19T09:30:12.117Z,51.42
2018-08-19T09:31:12.142Z,51.23
2018-08-19T09:33:05.136Z,51.81
2018-08-19T09:34:05.091Z,51.13
2018-08-19T09:35:58.017Z,51.35
2018-08-19T09:36:58.042Z,50.77
2018-08-19T09:38:50.992Z,50.99
2018-08-19T09:39:50.992Z,50.21
2018-08-19T09:41:43.940Z,49.73
2018-08-19T09:42:43.941Z,50.31
2018-08-19T09:44:36.866Z,49.17
2018-08-19T09:45:36.892Z,49.17
2018-08-19T09:47:29.907Z,48.78
2018-08-19T09:48:29.853Z,48.97
2018-08-19T09:50:22.777Z,48.52
2018-08-19T09:51:22.800Z,48.90
2018-08-19T09:53:15.745Z,47.55
2018-08-19T09:54:15.782Z,47.93
2018-08-19T09:56:08.678Z,47.72
2018-08-19T09:57:08.704Z,47.62
2018-08-19T09:59:01.651Z,48.88
2018-08-19T10:00:01.643Z,49.27
2018-08-19T10:01:54.597Z,49.17
2018-08-19T10:02:54.598Z,49.17
2018-08-19T10:04:47.523Z,48.47
2018-08-19T10:05:47.554Z,48.66
2018-08-19T10:07:40.528Z,49.34
2018-08-19T10:08:40.511Z,49.37
2018-08-19T10:10:33.432Z,48.97
2018-08-19T10:11:33.469Z,47.91
2018-08-19T10:13:26.403Z,48.95
2018-08-19T10:14:26.405Z,48.88
2018-08-19T10:16:19.338Z,48.95
2018-08-19T10:17:19.367Z,48.95
2018-08-19T10:19:12.315Z,49.34
2018-08-19T10:20:12.426Z,49.34
2018-08-19T10:22:05.491Z,49.05
2018-08-19T10:23:05.268Z,49.15
2018-08-19T10:24:58.188Z,48.85
2018-08-19T10:25:58.219Z,48.85
2018-08-19T10:27:51.166Z,49.54
2018-08-19T10:28:51.168Z,49.34
2018-08-19T10:30:44.091Z,50.02
2018-08-19T10:31:44.117Z,49.73
2018-08-19T10:33:37.056Z,49.66
2018-08-19T10:34:37.069Z,49.07
2018-08-19T10:36:29.991Z,48.71
2018-08-19T10:37:30.013Z,48.03
2018-08-19T10:39:22.954Z,48.13
2018-08-19T10:40:22.960Z,47.25
2018-08-19T10:42:15.904Z,47.23
2018-08-19T10:43:15.909Z,47.62
2018-08-19T10:45:08.965Z,47.62
2018-08-19T10:46:09.006Z,48.00
2018-08-19T10:48:01.939Z,48.00
2018-08-19T10:49:01.952Z,48.52
2018-08-19T10:50:54.861Z,47.25
2018-08-19T10:51:54.888Z,47.28
2018-08-19T10:53:47.835Z,45.92
2018-08-19T10:54:47.838Z,45.82
2018-08-19T10:56:40.770Z,46.01
2018-08-19T10:57:40.796Z,45.82
2018-08-19T10:59:33.735Z,46.38
2018-08-19T11:00:33.743Z,47.06
2018-08-19T11:02:26.687Z,46.38
2018-08-19T11:03:26.694Z,47.25
2018-08-19T11:05:19.623Z,46.58
2018-08-19T11:06:19.645Z,46.09
2018-08-19T11:08:12.588Z,45.34
2018-08-19T11:09:12.613Z,45.72
2018-08-19T11:11:05.513Z,45.82
2018-08-19T11:12:05.542Z,44.85
2018-08-19T11:13:58.481Z,44.65
2018-08-19T11:14:58.489Z,45.04
2018-08-19T11:16:51.405Z,45.04
2018-08-19T11:17:51.437Z,44.95
2018-08-19T11:19:44.381Z,45.43
2018-08-19T11:20:44.382Z,44.87
2018-08-19T11:22:37.334Z,44.87
2018-08-19T11:23:37.333Z,44.58
2018-08-19T11:25:30.266Z,44.60
2018-08-19T11:26:30.294Z,44.99
2018-08-19T11:28:23.221Z,44.02
2018-08-19T11:29:23.232Z,43.80
2018-08-19T11:31:16.162Z,44.31
2018-08-19T11:32:16.182Z,44.31
2018-08-19T11:34:09.135Z,44.41
2018-08-19T11:35:09.143Z,43.82
2018-08-19T11:37:02.053Z,43.92
2018-08-19T11:38:02.096Z,43.73
2018-08-19T11:39:56.075Z,43.44
2018-08-19T11:40:56.032Z,43.63
2018-08-19T11:42:48.982Z,43.05
2018-08-19T11:43:48.984Z,43.44
2018-08-19T11:45:41.906Z,43.80
2018-08-19T11:46:41.935Z,44.09
2018-08-19T11:48:34.908Z,44.09
2018-08-19T11:49:34.886Z,44.48
2018-08-19T11:51:27.805Z,44.87
2018-08-19T11:52:27.841Z,45.07
2018-08-19T11:54:20.819Z,44.78
2018-08-19T11:55:20.875Z,44.68
2018-08-19T11:57:13.771Z,44.38
2018-08-19T11:58:13.788Z,44.38
2018-08-19T12:00:06.713Z,44.19
2018-08-19T12:01:06.755Z,43.90
2018-08-19T12:02:59.672Z,44.78
2018-08-19T12:03:59.693Z,44.38
2018-08-19T12:05:52.626Z,44.07
2018-08-19T12:06:52.650Z,44.56
2018-08-19T12:08:45.586Z,45.04
2018-08-19T12:09:45.720Z,44.87
2018-08-19T12:11:38.527Z,44.48
2018-08-19T12:12:38.573Z,44.58
2018-08-19T12:14:32.015Z,43.44
2018-08-19T12:15:32.024Z,42.95
2018-08-19T12:17:24.955Z,42.85
2018-08-19T12:18:24.982Z,42.56
2018-08-19T12:20:17.923Z,42.29
2018-08-19T12:21:17.931Z,42.39
2018-08-19T12:23:10.873Z,42.36
2018-08-19T12:24:10.985Z,42.27
2018-08-19T12:26:03.952Z,42.36
2018-08-19T12:27:04.029Z,42.83
2018-08-19T12:28:56.923Z,43.41
2018-08-19T12:29:56.931Z,43.22
2018-08-19T12:31:49.851Z,43.15
2018-08-19T12:32:49.879Z,42.85
2018-08-19T12:34:42.849Z,42.29
2018-08-19T12:35:42.828Z,42.49
2018-08-19T12:37:36.777Z,41.71
2018-08-19T12:38:36.776Z,42.19
2018-08-19T12:40:29.723Z,42.29
2018-08-19T12:41:29.726Z,41.80
2018-08-19T12:43:22.704Z,42.39
2018-08-19T12:44:22.676Z,43.26
2018-08-19T12:46:15.604Z,42.39
2018-08-19T12:47:15.630Z,42.00
2018-08-19T12:49:08.573Z,41.78
2018-08-19T12:50:08.643Z,41.69
2018-08-19T12:52:01.505Z,41.88
2018-08-19T12:53:01.531Z,42.08
2018-08-19T12:54:54.482Z,42.36
2018-08-19T12:55:54.526Z,41.86
2018-08-19T12:57:47.417Z,42.46
2018-08-19T12:58:47.443Z,42.27
2018-08-19T13:00:40.413Z,42.85
2018-08-19T13:01:40.395Z,42.27
2018-08-19T13:03:33.334Z,42.27
2018-08-19T13:04:33.342Z,42.36
2018-08-19T13:06:26.266Z,42.93
2018-08-19T13:07:26.292Z,43.15
2018-08-19T13:09:19.251Z,42.95
2018-08-19T13:10:19.302Z,42.27
2018-08-19T13:12:12.177Z,41.98
2018-08-19T13:13:12.204Z,41.88
2018-08-19T13:15:05.147Z,41.90
2018-08-19T13:16:05.205Z,42.29
2018-08-19T13:17:58.083Z,42.00
2018-08-19T13:18:58.115Z,41.71
2018-08-19T13:20:51.046Z,41.51
2018-08-19T13:21:51.055Z,41.51
2018-08-19T13:23:43.994Z,41.14
2018-08-19T13:24:44.012Z,40.27
2018-08-19T13:26:37.925Z,40.00
2018-08-19T13:27:37.953Z,40.09
2018-08-19T13:29:30.901Z,39.41
2018-08-19T13:30:30.908Z,39.31
2018-08-19T13:32:23.838Z,39.22
2018-08-19T13:33:23.866Z,39.88
2018-08-19T13:35:16.817Z,40.75
2018-08-19T13:36:16.838Z,40.73
2018-08-19T13:38:09.770Z,42.10
2018-08-19T13:39:09.779Z,42.00
2018-08-19T13:41:02.722Z,41.83
2018-08-19T13:42:02.747Z,41.63
2018-08-19T13:43:55.681Z,41.61
2018-08-19T13:44:55.688Z,41.42
2018-08-19T13:46:48.609Z,41.53
2018-08-19T13:47:48.640Z,40.66
2018-08-19T13:49:41.588Z,40.37
2018-08-19T13:50:41.592Z,40.47
2018-08-19T13:52:34.543Z,40.27
2018-08-19T13:53:34.552Z,40.37
2018-08-19T13:55:27.497Z,39.98
2018-08-19T13:56:27.507Z,40.17
2018-08-19T13:58:20.435Z,40.37
2018-08-19T13:59:20.458Z,40.75
2018-08-19T14:01:13.429Z,39.37
2018-08-19T14:02:13.431Z,39.86
2018-08-19T14:04:06.371Z,40.23
2018-08-19T14:05:06.382Z,40.64
2018-08-19T14:06:59.311Z,40.44
2018-08-19T14:07:59.331Z,40.44
2018-08-19T14:09:52.280Z,40.93
2018-08-19T14:10:52.281Z,40.08
2018-08-19T14:12:45.210Z,39.78
2018-08-19T14:13:45.233Z,40.08
2018-08-19T14:15:38.196Z,39.90
2018-08-19T14:16:38.195Z,39.31
2018-08-19T14:18:31.123Z,39.12
2018-08-19T14:19:31.149Z,39.22
2018-08-19T14:21:24.096Z,38.65
2018-08-19T14:22:24.101Z,38.24
2018-08-19T14:24:17.044Z,38.64
2018-08-19T14:25:17.055Z,38.64
2018-08-19T14:27:09.982Z,39.12
2018-08-19T14:28:10.008Z,39.03
2018-08-19T14:30:03.061Z,37.85
2018-08-19T14:31:02.958Z,37.56
2018-08-19T14:32:55.886Z,38.34
2018-08-19T14:33:55.913Z,37.85
2018-08-19T14:35:48.860Z,37.97
2018-08-19T14:36:48.865Z,37.77
2018-08-19T14:38:41.790Z,37.66
2018-08-19T14:39:41.818Z,37.85
2018-08-19T14:41:34.762Z,38.15
2018-08-19T14:42:34.772Z,38.44
2018-08-19T14:44:27.712Z,38.44
2018-08-19T14:45:27.719Z,39.03
2018-08-19T14:47:20.643Z,38.64
2018-08-19T14:48:20.669Z,39.31
2018-08-19T14:50:13.612Z,39.22
2018-08-19T14:51:13.621Z,39.12
2018-08-19T14:53:06.547Z,39.12
2018-08-19T14:54:06.576Z,38.64
2018-08-19T14:55:59.521Z,38.83
2018-08-19T14:56:59.529Z,38.05
2018-08-19T14:58:52.448Z,38.54
2018-08-19T14:59:52.479Z,38.54
2018-08-19T15:01:45.418Z,38.95
2018-08-19T15:02:45.428Z,38.75
2018-08-19T15:04:38.378Z,38.85
2018-08-19T15:05:38.384Z,38.36
2018-08-19T15:07:31.305Z,38.85
2018-08-19T15:08:31.335Z,38.26
2018-08-19T15:10:24.283Z,37.97
2018-08-19T15:11:24.289Z,38.34
2018-08-19T15:13:17.222Z,37.95
2018-08-19T15:14:17.242Z,37.58
2018-08-19T15:16:10.192Z,37.77
2018-08-19T15:17:10.204Z,37.68
2018-08-19T15:19:03.142Z,37.68
2018-08-19T15:20:03.186Z,37.68
2018-08-19T15:21:56.114Z,37.60
2018-08-19T15:22:56.125Z,37.50
2018-08-19T15:24:49.105Z,36.72
2018-08-19T15:25:49.113Z,36.82
2018-08-19T15:27:42.037Z,36.33
2018-08-19T15:28:42.066Z,36.43
2018-08-19T15:30:35.076Z,36.43
2018-08-19T15:31:35.024Z,36.33
2018-08-19T15:33:27.964Z,36.32
2018-08-19T15:34:27.977Z,36.12
2018-08-19T15:36:20.928Z,36.32
2018-08-19T15:37:20.933Z,36.32
2018-08-19T15:39:13.865Z,36.61
2018-08-19T15:40:13.891Z,37.00
2018-08-19T15:42:06.834Z,37.29
2018-08-19T15:43:06.844Z,37.58
2018-08-19T15:44:59.814Z,37.19
2018-08-19T15:45:59.795Z,37.39
2018-08-19T15:47:52.729Z,36.80
2018-08-19T15:48:52.751Z,36.80
2018-08-19T15:50:45.702Z,37.10
2018-08-19T15:51:45.700Z,37.39
2018-08-19T15:53:38.633Z,37.46
2018-08-19T15:54:38.660Z,37.56
2018-08-19T15:56:31.610Z,37.76
2018-08-19T15:57:31.614Z,37.87
2018-08-19T15:59:24.538Z,37.29
2018-08-19T16:00:24.575Z,37.00
2018-08-19T16:02:17.508Z,36.80
2018-08-19T16:03:17.526Z,36.80
2018-08-19T16:05:10.460Z,37.00
2018-08-19T16:06:10.469Z,37.29
2018-08-19T16:08:03.411Z,37.29
2018-08-19T16:09:03.442Z,37.56
2018-08-19T16:10:56.415Z,37.56
2018-08-19T16:11:56.393Z,37.76
2018-08-19T16:13:49.319Z,37.85
2018-08-19T16:14:49.357Z,37.56
2018-08-19T16:16:42.301Z,37.95
2018-08-19T16:17:42.302Z,37.85
2018-08-19T16:19:35.228Z,37.76
2018-08-19T16:20:35.258Z,38.03
2018-08-19T16:22:28.209Z,38.15
2018-08-19T16:23:28.216Z,37.85
2018-08-19T16:25:21.153Z,37.95
2018-08-19T16:26:21.162Z,37.76
2018-08-19T16:28:14.246Z,37.37
2018-08-19T16:29:14.276Z,37.56
2018-08-19T16:31:07.217Z,37.45
2018-08-19T16:32:07.252Z,37.74
2018-08-19T16:34:00.262Z,37.64
2018-08-19T16:35:00.190Z,37.93
2018-08-19T16:36:53.127Z,38.21
2018-08-19T16:37:53.126Z,38.31
2018-08-19T16:39:46.075Z,39.18
2018-08-19T16:40:46.103Z,39.08
2018-08-19T16:42:39.050Z,38.70
2018-08-19T16:43:39.052Z,38.21
2018-08-19T16:45:31.995Z,38.60
2018-08-19T16:46:32.006Z,38.50
2018-08-19T16:48:24.920Z,38.40
2018-08-19T16:49:24.952Z,38.48
2018-08-19T16:51:17.899Z,38.60
2018-08-19T16:52:17.900Z,38.50
2018-08-19T16:54:10.820Z,38.77
2018-08-19T16:55:10.851Z,39.26
2018-08-19T16:57:03.842Z,39.45
2018-08-19T16:58:03.801Z,39.08
2018-08-19T16:59:56.722Z,39.86
2018-08-19T17:00:56.751Z,39.76
2018-08-19T17:02:49.786Z,40.03
2018-08-19T17:03:49.701Z,40.34
2018-08-19T17:05:42.643Z,40.06
2018-08-19T17:06:42.655Z,40.15
2018-08-19T17:08:35.623Z,40.15
2018-08-19T17:09:35.628Z,40.34
2018-08-19T17:11:28.571Z,40.15
2018-08-19T17:12:28.579Z,40.54
2018-08-19T17:14:21.499Z,40.54
2018-08-19T17:15:21.530Z,40.64
2018-08-19T17:17:14.476Z,40.34
2018-08-19T17:18:14.480Z,40.34
2018-08-19T17:20:07.406Z,40.23
2018-08-19T17:21:07.444Z,40.72
2018-08-19T17:23:00.414Z,41.01
2018-08-19T17:24:00.422Z,41.20
2018-08-19T17:25:53.373Z,40.44
2018-08-19T17:26:53.412Z,40.73
2018-08-19T17:28:46.295Z,40.52
2018-08-19T17:29:46.323Z,40.91
2018-08-19T17:31:39.274Z,41.88
2018-08-19T17:32:39.341Z,41.39
2018-08-19T17:34:32.203Z,41.98
2018-08-19T17:35:32.234Z,41.98
2018-08-19T17:37:25.183Z,42.15
2018-08-19T17:38:25.183Z,42.25
2018-08-19T17:40:18.111Z,42.83
2018-08-19T17:41:18.140Z,42.74
2018-08-19T17:43:11.079Z,42.83
2018-08-19T17:44:11.088Z,42.74
2018-08-19T17:46:04.046Z,42.95
2018-08-19T17:47:04.042Z,42.64
2018-08-19T17:48:56.970Z,42.64
2018-08-19T17:49:57.049Z,43.12
2018-08-19T17:51:49.943Z,43.41
2018-08-19T17:52:49.956Z,43.32
2018-08-19T17:54:42.873Z,43.71
2018-08-19T17:55:42.902Z,43.80
2018-08-19T17:57:35.849Z,44.38
2018-08-19T17:58:35.849Z,44.58
2018-08-19T18:00:28.770Z,45.24
2018-08-19T18:01:28.798Z,44.75
2018-08-19T18:03:21.738Z,45.34
2018-08-19T18:04:21.745Z,45.53
2018-08-19T18:06:14.694Z,46.38
2018-08-19T18:07:14.697Z,46.86
2018-08-19T18:09:07.619Z,47.03
2018-08-19T18:10:07.648Z,47.03
2018-08-19T18:12:00.598Z,47.23
2018-08-19T18:13:00.606Z,47.42
2018-08-19T18:14:53.558Z,47.42
2018-08-19T18:15:53.553Z,47.52
2018-08-19T18:17:46.518Z,47.72
2018-08-19T18:18:46.500Z,48.00
2018-08-19T18:20:39.423Z,48.49
2018-08-19T18:21:39.448Z,48.88
2018-08-19T18:23:32.385Z,48.59
2018-08-19T18:24:32.394Z,49.15
2018-08-19T18:26:25.330Z,49.44
2018-08-19T18:27:25.339Z,49.44
2018-08-19T18:29:18.255Z,49.54
2018-08-19T18:30:18.285Z,50.21
2018-08-19T18:32:11.235Z,50.21
2018-08-19T18:33:11.233Z,50.12